Aeroporto :
LOGIN :

Iscrizione | Disclaimer

   EN    FR    IT 

 










Sommario :    VFR   VFR Marginale   IFR   IFR Intensivo   IFR Molto Intensivo
Visibilità : 
Base nubi : 
>= 8 km
>= 3000ft
5 / 8 km
1000 / 3000 ft
1500m / 5 km
500 / 1000 ft
800 / 1500m
200 / 500 ft
< 800m
< 200 ft
Simboli :   Temporali  Nebbia  Neve Forte  Precipitazioni Forti  Vento > 20 kt
SIGMETs :   Varie  Temporali  Ghiacco  Turbolenza  Onda orograficha  Ceneri Vulcaniche






- Altitudine del aeroporto : 915 ft
- Codice IATA : LUG


LSZA - Lugano

ULTIMO METAR :
  • 310720Z 19004KT 150V220 9999 FEW020 BKN042 16/12 Q1017 NOSIG

METARs OBSOLETI :
  • 310650Z AUTO 20005KT 170V230 9999 SCT040 BKN065 16/12 Q1018
  • 310620Z VRB02KT 9999 FEW020 BKN045 15/12 Q1017 NOSIG
  • 310550Z VRB02KT 9999 FEW020 BKN041 15/12 Q1017 NOSIG
  • 310520Z AUTO VRB02KT 9999 SCT041 BKN050 15/12 Q1017
  • 310450Z AUTO VRB02KT 9999 BKN040 15/11 Q1017

TAF TAF LSZA
Valido dal 31 a 06 ore il 31 a 15 ore UTC


310525Z 3106/3115 VRB03KT 9999 SCT040 BKN050
ATIS : +41 22 417 40 88



MetMap, La meteo Aeronautica in un colpo d'occhio ! - Copyright ORBIFLY Dicembre 2007 - Disclaimer

ORBIFLY MET'MAP TEAM :

Programmazione e sviluppo : Alexandra Zaïnal
Concezione : Baudouin d'Aumeries
Aiuto per la programmazione : Marc-Olivier Méhu
Supporto tecnico e logistico : Manuel Goepfert
Aiuto per la traduzione : Arnaldo La Scala

Contatto : metmap@orbifly.com




FONTI E CREDITI :

   NOAA